Time;durP1;ratioP1;P1;durP2;ratioP2;P2;SDS_P1;SDS_P2;PMS_P1;PMS_P2;Temp;Humidity;BMP_temperature;BMP_pressure;BME280_temperature;BME280_humidity;BME280_pressure;Samples;Min_cycle;Max_cycle;Signal;HPM_P1;HPM_P2
2022/12/08 00:02:15;;;;;;;;;;;;;;;5.95;58.81;94863.31;5092198;28;20019;-65
2022/12/08 00:10:09;;;;;;;;;;;;;;;6.68;56.08;94862.91;5092122;28;20015;-65
2022/12/08 00:12:34;;;;;;;;;;;;;;;6.75;55.69;94862.53;5091640;28;20013;-65
2022/12/08 00:14:59;;;;;;;;;;;;;;;6.83;55.40;94859.28;5091917;28;20522;-65
2022/12/08 00:17:24;;;;;;;;;;;;;;;5.88;57.92;94852.25;5092059;28;20009;-65
2022/12/08 00:19:50;;;;;;;;;;;;;;;6.33;57.50;94858.09;5091222;28;20020;-65
2022/12/08 00:22:15;;;;;;;;;;;;;;;6.44;57.03;94848.97;5091806;28;20013;-65
2022/12/08 00:24:42;;;;;;;;;;;;;;;6.57;56.52;94853.56;5091890;28;20036;-65
2022/12/08 00:27:09;;;;;;;;;;;;;;;6.79;55.96;94850.34;5073603;28;20052;-65
2022/12/08 00:29:34;;;;;;;;;;;;;;;6.86;55.76;94848.13;5091432;28;20509;-65
2022/12/08 00:31:59;;;;;;;;;;;;;;;6.97;56.06;94846.91;5091720;28;20130;-65
2022/12/08 00:34:25;;;;;;;;;;;;;;;7.10;56.01;94850.66;5073273;28;20019;-65
2022/12/08 00:36:50;;;;;;;;;;;;;;;7.22;55.23;94840.44;5073167;28;20500;-65
2022/12/08 00:39:16;;;;;;;;;;;;;;;7.28;55.18;94841.91;5091469;28;20051;-65
2022/12/08 00:44:25;;;;;;;;;;;;;;;7.35;54.31;94830.16;5092223;28;20062;-64
2022/12/08 00:46:50;;;;;;;;;;;;;;;7.41;54.58;94836.94;5091562;28;20415;-65
2022/12/08 00:49:16;;;;;;;;;;;;;;;7.45;54.74;94832.63;5090990;28;20013;-64
2022/12/08 00:51:42;;;;;;;;;;;;;;;7.51;54.05;94828.81;5073250;28;20013;-64
2022/12/08 00:54:07;;;;;;;;;;;;;;;7.51;54.07;94834.13;5073230;28;20020;-64
2022/12/08 00:56:33;;;;;;;;;;;;;;;7.53;54.38;94829.34;5090778;28;20032;-64
2022/12/08 00:58:58;;;;;;;;;;;;;;;7.55;54.11;94827.16;5072598;28;20472;-65
2022/12/08 01:01:23;;;;;;;;;;;;;;;7.58;54.29;94831.13;5090782;28;20005;-64
2022/12/08 01:03:49;;;;;;;;;;;;;;;7.60;53.83;94826.28;5072749;28;20477;-65
2022/12/08 01:06:14;;;;;;;;;;;;;;;7.58;53.94;94831.91;5072794;28;20013;-65
2022/12/08 01:08:40;;;;;;;;;;;;;;;7.53;53.93;94826.69;5090485;28;20009;-65
2022/12/08 01:11:10;;;;;;;;;;;;;;;7.51;53.87;94821.66;5072935;28;20087;-65
2022/12/08 01:13:35;;;;;;;;;;;;;;;7.51;54.33;94824.31;5091268;28;20478;-65
2022/12/08 01:16:01;;;;;;;;;;;;;;;7.52;54.67;94833.03;5072615;28;20104;-65
2022/12/08 01:18:26;;;;;;;;;;;;;;;7.55;53.99;94824.53;5072038;28;20051;-64
2022/12/08 01:20:52;;;;;;;;;;;;;;;7.52;53.91;94833.03;5090867;28;20005;-64
2022/12/08 01:23:17;;;;;;;;;;;;;;;7.56;54.54;94823.44;5072657;28;20072;-64
2022/12/08 01:25:42;;;;;;;;;;;;;;;7.54;54.05;94822.97;5072562;28;20103;-64
2022/12/08 01:28:07;;;;;;;;;;;;;;;7.56;54.48;94824.22;5090109;28;20009;-64
2022/12/08 01:30:32;;;;;;;;;;;;;;;7.56;53.96;94828.72;5072492;28;20379;-65
2022/12/08 01:32:58;;;;;;;;;;;;;;;7.56;54.74;94823.44;5090074;28;20017;-66
2022/12/08 01:35:23;;;;;;;;;;;;;;;7.56;53.90;94826.09;5090200;28;20020;-64
2022/12/08 01:37:49;;;;;;;;;;;;;;;7.54;53.80;94817.66;5072202;28;20144;-65
2022/12/08 01:40:14;;;;;;;;;;;;;;;7.53;54.21;94822.19;5071822;28;20010;-64
2022/12/08 01:42:39;;;;;;;;;;;;;;;7.54;53.97;94817.66;5072361;28;20081;-65
2022/12/08 01:45:06;;;;;;;;;;;;;;;7.51;54.41;94813.72;5072435;28;20017;-64
2022/12/08 01:47:34;;;;;;;;;;;;;;;7.52;54.07;94803.91;5090421;28;20012;-65
2022/12/08 01:49:59;;;;;;;;;;;;;;;7.40;54.32;94808.91;5089982;28;20020;-64
2022/12/08 01:52:25;;;;;;;;;;;;;;;7.12;54.08;94808.06;5090592;28;20008;-64
2022/12/08 01:54:52;;;;;;;;;;;;;;;6.89;55.14;94807.88;5072441;28;20105;-65
2022/12/08 01:57:21;;;;;;;;;;;;;;;7.03;55.39;94808.72;5072263;28;20064;-64
2022/12/08 01:59:49;;;;;;;;;;;;;;;7.10;54.97;94800.41;5090204;28;20065;-64
2022/12/08 02:02:15;;;;;;;;;;;;;;;7.19;55.33;94795.25;5090379;28;20032;-64
2022/12/08 02:04:40;;;;;;;;;;;;;;;7.25;55.35;94794.88;5090490;28;20595;-64
2022/12/08 02:07:06;;;;;;;;;;;;;;;7.30;55.09;94799.28;5090362;28;20046;-65
2022/12/08 02:09:32;;;;;;;;;;;;;;;7.28;54.06;94796.94;5089918;28;20009;-65
2022/12/08 02:11:58;;;;;;;;;;;;;;;7.29;54.30;94789.78;5071587;28;20019;-65
2022/12/08 02:14:24;;;;;;;;;;;;;;;7.29;54.59;94789.78;5071426;28;20027;-64
2022/12/08 02:16:55;;;;;;;;;;;;;;;7.26;54.74;94780.56;5089872;28;20095;-65
2022/12/08 02:19:23;;;;;;;;;;;;;;;7.25;54.53;94778.22;5089886;28;20013;-65
2022/12/08 02:21:48;;;;;;;;;;;;;;;7.23;54.66;94778.50;5090203;28;20009;-65
2022/12/08 02:24:21;;;;;;;;;;;;;;;7.15;54.74;94776.53;5090249;28;20388;-64
2022/12/08 02:27:06;;;;;;;;;;;;;;;7.12;55.22;94761.25;5071891;28;20017;-65
2022/12/08 02:29:39;;;;;;;;;;;;;;;7.08;55.47;94767.41;5089781;28;20015;-65
2022/12/08 02:32:23;;;;;;;;;;;;;;;7.03;55.30;94766.41;5090189;28;20013;-65
2022/12/08 02:35:07;;;;;;;;;;;;;;;6.96;55.12;94766.00;5089804;28;20008;-64
2022/12/08 02:37:36;;;;;;;;;;;;;;;6.92;55.88;94756.31;5089458;28;20157;-65
2022/12/08 02:40:24;;;;;;;;;;;;;;;6.90;55.92;94759.22;5089517;28;20008;-64
2022/12/08 02:42:55;;;;;;;;;;;;;;;6.86;55.99;94760.09;5076083;28;20518;-64
2022/12/08 02:45:29;;;;;;;;;;;;;;;6.87;56.19;94759.03;5089798;28;20012;-63
2022/12/08 02:47:54;;;;;;;;;;;;;;;6.88;56.16;94760.59;5071536;28;20074;-64
2022/12/08 02:50:19;;;;;;;;;;;;;;;6.90;55.95;94755.78;5089109;28;20099;-66
2022/12/08 02:52:46;;;;;;;;;;;;;;;6.90;56.03;94756.56;5071588;28;20481;-64
2022/12/08 02:55:25;;;;;;;;;;;;;;;6.94;56.01;94757.56;5071382;28;20017;-64
2022/12/08 02:57:55;;;;;;;;;;;;;;;6.97;56.18;94754.34;5089607;28;20009;-64
2022/12/08 03:00:23;;;;;;;;;;;;;;;6.92;55.58;94756.31;5089295;28;20100;-65
2022/12/08 03:03:12;;;;;;;;;;;;;;;6.93;55.98;94755.22;5071312;28;20017;-65
2022/12/08 03:05:49;;;;;;;;;;;;;;;6.94;55.58;94741.69;5089599;28;20009;-64
2022/12/08 03:08:20;;;;;;;;;;;;;;;6.91;55.60;94744.13;5089088;28;20100;-64
2022/12/08 03:10:51;;;;;;;;;;;;;;;6.91;56.20;94747.59;5071287;28;20016;-64
2022/12/08 03:13:19;;;;;;;;;;;;;;;6.93;55.91;94739.34;5071823;28;20459;-64
2022/12/08 03:15:47;;;;;;;;;;;;;;;6.89;55.31;94736.50;5089410;28;20040;-64
2022/12/08 03:18:14;;;;;;;;;;;;;;;6.88;55.30;94734.94;5088587;28;20013;-65
2022/12/08 03:20:40;;;;;;;;;;;;;;;6.83;55.68;94742.16;5089295;28;20016;-66
2022/12/08 03:23:08;;;;;;;;;;;;;;;6.78;55.65;94737.75;5089378;28;20164;-64
2022/12/08 03:25:36;;;;;;;;;;;;;;;6.78;55.73;94740.38;5092486;28;20013;-66
2022/12/08 03:28:01;;;;;;;;;;;;;;;6.81;56.47;94739.00;5092692;28;20622;-65
2022/12/08 03:30:28;;;;;;;;;;;;;;;6.81;55.98;94734.53;5074614;28;20012;-65
2022/12/08 03:33:05;;;;;;;;;;;;;;;6.81;55.25;94733.72;5092853;28;20048;-65
2022/12/08 03:35:32;;;;;;;;;;;;;;;6.71;55.84;94730.19;5092684;28;20479;-65
2022/12/08 03:38:04;;;;;;;;;;;;;;;6.66;55.45;94722.34;5092205;28;20156;-66
2022/12/08 03:40:30;;;;;;;;;;;;;;;6.54;55.94;94724.63;5092272;28;20074;-65
2022/12/08 03:42:55;;;;;;;;;;;;;;;6.46;55.59;94726.09;5074578;28;20250;-65
2022/12/08 03:45:20;;;;;;;;;;;;;;;6.39;55.71;94724.88;5074156;28;20130;-65
2022/12/08 03:47:45;;;;;;;;;;;;;;;6.32;56.91;94727.09;5092574;28;20477;-65
2022/12/08 03:50:11;;;;;;;;;;;;;;;6.30;56.91;94722.09;5092260;28;20054;-65
2022/12/08 03:52:36;;;;;;;;;;;;;;;6.29;56.53;94714.44;5092471;28;20008;-65
2022/12/08 03:55:01;;;;;;;;;;;;;;;6.27;56.77;94712.09;5092351;28;20469;-65
2022/12/08 03:57:26;;;;;;;;;;;;;;;6.28;57.23;94712.88;5091958;28;20009;-65
2022/12/08 03:59:52;;;;;;;;;;;;;;;6.27;57.19;94711.31;5090850;28;20009;-63
2022/12/08 04:02:17;;;;;;;;;;;;;;;6.27;57.46;94716.59;5092148;28;20062;-65
2022/12/08 04:04:42;;;;;;;;;;;;;;;6.29;57.49;94709.94;5074245;28;20016;-63
2022/12/08 04:07:07;;;;;;;;;;;;;;;6.32;57.23;94719.19;5092334;28;20133;-64
2022/12/08 04:09:32;;;;;;;;;;;;;;;6.29;56.61;94714.44;5091771;28;20020;-65
2022/12/08 04:11:58;;;;;;;;;;;;;;;6.28;56.92;94707.59;5092289;28;20373;-64
2022/12/08 04:14:23;;;;;;;;;;;;;;;6.29;56.87;94706.53;5092161;28;20016;-64
2022/12/08 04:16:48;;;;;;;;;;;;;;;6.31;56.96;94705.19;5092002;28;20017;-64
2022/12/08 04:19:14;;;;;;;;;;;;;;;6.31;57.06;94707.03;5091782;28;20009;-64
2022/12/08 04:21:39;;;;;;;;;;;;;;;6.35;56.75;94724.69;5091938;28;20013;-64
2022/12/08 04:24:04;;;;;;;;;;;;;;;6.37;56.76;94708.53;5091977;28;20009;-64
2022/12/08 04:26:29;;;;;;;;;;;;;;;6.43;56.78;94710.03;5091514;28;20008;-64
2022/12/08 04:28:55;;;;;;;;;;;;;;;6.47;56.91;94706.50;5091555;28;20009;-64
2022/12/08 04:31:20;;;;;;;;;;;;;;;6.54;56.80;94705.34;5091566;28;20476;-66
2022/12/08 04:33:45;;;;;;;;;;;;;;;6.56;56.95;94697.94;5091864;28;20020;-64
2022/12/08 04:36:10;;;;;;;;;;;;;;;6.58;57.17;94701.84;5090507;28;20017;-65
2022/12/08 04:38:36;;;;;;;;;;;;;;;6.57;57.25;94700.28;5091316;28;20060;-65
2022/12/08 04:41:01;;;;;;;;;;;;;;;6.58;56.82;94698.44;5091531;28;20013;-64
2022/12/08 04:43:26;;;;;;;;;;;;;;;6.60;56.54;94694.41;5091581;28;20567;-64
2022/12/08 04:45:52;;;;;;;;;;;;;;;6.64;56.85;94697.28;5073357;28;20016;-65
2022/12/08 04:48:17;;;;;;;;;;;;;;;6.65;57.18;94691.69;5090847;28;20008;-65
2022/12/08 04:50:43;;;;;;;;;;;;;;;6.69;56.79;94691.91;5091267;28;20055;-65
2022/12/08 04:53:09;;;;;;;;;;;;;;;6.68;56.65;94691.13;5091265;28;20009;-65
2022/12/08 04:55:36;;;;;;;;;;;;;;;6.71;56.37;94684.47;5091234;28;20070;-65
2022/12/08 04:58:02;;;;;;;;;;;;;;;6.15;56.56;94604.28;5090757;28;20078;-65
2022/12/08 05:00:27;;;;;;;;;;;;;;;6.72;56.49;94691.34;5091100;28;20009;-65
2022/12/08 05:02:52;;;;;;;;;;;;;;;6.77;56.85;94699.19;5091281;28;20012;-65
2022/12/08 05:05:17;;;;;;;;;;;;;;;6.77;56.93;94696.53;5091263;28;20008;-65
2022/12/08 05:07:43;;;;;;;;;;;;;;;6.80;56.97;94697.81;5090854;28;20086;-65
2022/12/08 05:10:08;;;;;;;;;;;;;;;6.81;56.80;94692.25;5072408;28;20133;-65
2022/12/08 05:12:34;;;;;;;;;;;;;;;6.84;56.11;94699.56;5090884;28;20013;-65
2022/12/08 05:14:59;;;;;;;;;;;;;;;6.87;56.65;94700.88;5072643;28;20082;-65
2022/12/08 05:17:24;;;;;;;;;;;;;;;6.86;56.67;94700.09;5090588;28;20110;-66
2022/12/08 05:19:52;;;;;;;;;;;;;;;6.86;56.38;94692.16;5090249;28;20009;-65
2022/12/08 05:22:17;;;;;;;;;;;;;;;6.89;55.96;94686.28;5090675;28;20009;-66
2022/12/08 05:24:42;;;;;;;;;;;;;;;6.90;56.02;94689.69;5090760;28;20111;-65
2022/12/08 05:27:08;;;;;;;;;;;;;;;6.93;56.50;94681.19;5090582;28;20071;-65
2022/12/08 05:29:33;;;;;;;;;;;;;;;6.96;56.10;94683.22;5090372;28;20476;-65
2022/12/08 05:31:58;;;;;;;;;;;;;;;6.97;56.10;94676.91;5090445;28;20009;-65
2022/12/08 05:34:24;;;;;;;;;;;;;;;6.99;56.26;94680.81;5072340;28;20020;-65
2022/12/08 05:36:49;;;;;;;;;;;;;;;7.02;55.68;94682.09;5089949;28;20028;-64
2022/12/08 05:39:14;;;;;;;;;;;;;;;7.01;56.35;94668.09;5071088;28;20412;-64
2022/12/08 05:41:40;;;;;;;;;;;;;;;6.99;55.57;94669.44;5071530;28;20457;-65
2022/12/08 05:44:05;;;;;;;;;;;;;;;6.96;55.86;94672.66;5089635;28;20009;-65
2022/12/08 05:46:30;;;;;;;;;;;;;;;6.95;55.52;94674.53;5089244;28;20017;-65
2022/12/08 05:48:57;;;;;;;;;;;;;;;6.90;56.33;94669.31;5089253;28;20044;-64
2022/12/08 05:51:23;;;;;;;;;;;;;;;6.90;56.02;94671.19;5089364;28;20016;-64
2022/12/08 05:53:49;;;;;;;;;;;;;;;6.85;55.57;94674.69;5089577;28;20420;-65
2022/12/08 05:56:14;;;;;;;;;;;;;;;6.89;55.92;94669.63;5089102;28;20016;-65
2022/12/08 05:58:39;;;;;;;;;;;;;;;6.90;56.00;94666.69;5070548;28;20103;-65
2022/12/08 06:01:05;;;;;;;;;;;;;;;6.90;55.95;94673.84;5070996;28;20013;-65
2022/12/08 06:03:30;;;;;;;;;;;;;;;6.95;55.95;94669.22;5089244;28;20016;-65
2022/12/08 06:05:55;;;;;;;;;;;;;;;6.99;55.89;94664.16;5089168;28;20020;-65
2022/12/08 06:08:20;;;;;;;;;;;;;;;7.00;55.95;94663.06;5070265;28;20020;-65
2022/12/08 06:10:45;;;;;;;;;;;;;;;7.02;56.18;94667.00;5088995;28;20054;-65
2022/12/08 06:13:11;;;;;;;;;;;;;;;7.01;55.64;94667.28;5089160;28;20377;-65
2022/12/08 06:15:37;;;;;;;;;;;;;;;7.03;56.06;94670.44;5089198;28;20061;-64
2022/12/08 06:18:03;;;;;;;;;;;;;;;7.02;56.37;94669.66;5089013;28;20008;-65
2022/12/08 06:20:28;;;;;;;;;;;;;;;7.01;56.35;94662.00;5089142;28;20015;-66
2022/12/08 06:22:53;;;;;;;;;;;;;;;7.01;55.64;94664.63;5089304;28;20078;-65
2022/12/08 06:25:19;;;;;;;;;;;;;;;7.01;56.41;94662.00;5089166;28;20442;-65
2022/12/08 06:27:44;;;;;;;;;;;;;;;7.01;55.81;94659.34;5089103;28;20353;-65
2022/12/08 06:30:09;;;;;;;;;;;;;;;6.99;56.03;94664.16;5088606;28;20021;-64
2022/12/08 06:32:35;;;;;;;;;;;;;;;7.03;56.25;94667.78;5088850;28;20013;-64
2022/12/08 06:35:00;;;;;;;;;;;;;;;6.54;55.48;94584.59;5088730;28;20104;-65
2022/12/08 06:37:25;;;;;;;;;;;;;;;7.05;55.48;94662.97;5022635;28;1873739;-65
2022/12/08 06:39:50;;;;;;;;;;;;;;;7.01;55.93;94659.34;5089149;28;20016;-65
2022/12/08 06:43:01;;;;;;;;;;;;;;;7.04;56.05;94669.34;5089476;28;20514;-65
2022/12/08 06:45:01;;;;;;;;;;;;;;;7.03;55.76;94662.50;5075165;28;20020;-65
2022/12/08 06:47:27;;;;;;;;;;;;;;;7.03;55.79;94660.63;5089284;28;20509;-65
2022/12/08 06:49:52;;;;;;;;;;;;;;;7.02;55.64;94656.44;5088803;28;20009;-64
2022/12/08 06:52:17;;;;;;;;;;;;;;;7.02;56.01;94658.28;5089274;28;20108;-65
2022/12/08 06:54:42;;;;;;;;;;;;;;;7.00;55.60;94655.13;5089445;28;20016;-64
2022/12/08 06:57:07;;;;;;;;;;;;;;;6.99;56.12;94653.56;5089275;28;20052;-65
2022/12/08 06:59:33;;;;;;;;;;;;;;;6.96;56.08;94654.97;5073051;28;20020;-65
2022/12/08 07:01:58;;;;;;;;;;;;;;;6.97;55.82;94655.75;5093507;28;20008;-64
2022/12/08 07:04:23;;;;;;;;;;;;;;;6.98;55.70;94659.94;5093123;28;20008;-64
2022/12/08 07:06:48;;;;;;;;;;;;;;;6.97;56.00;94663.69;5093269;28;20120;-64
2022/12/08 07:09:14;;;;;;;;;;;;;;;7.00;56.03;94663.06;5074606;28;20098;-64
2022/12/08 07:11:39;;;;;;;;;;;;;;;7.01;55.77;94656.69;5093294;28;20016;-64
2022/12/08 07:14:09;;;;;;;;;;;;;;;6.94;56.58;94666.88;5091513;28;20012;-70
2022/12/08 07:16:35;;;;;;;;;;;;;;;6.70;57.17;94675.75;5071456;28;20016;-71
2022/12/08 07:19:00;;;;;;;;;;;;;;;6.80;56.63;94674.78;5070769;28;20013;-73
2022/12/08 07:21:25;;;;;;;;;;;;;;;6.73;56.90;94675.16;5085728;28;20042;-68
2022/12/08 07:23:51;;;;;;;;;;;;;;;6.76;56.45;94666.69;5091732;28;20399;-68
2022/12/08 07:26:16;;;;;;;;;;;;;;;6.91;56.77;94667.47;5090162;28;20016;-70
2022/12/08 07:28:42;;;;;;;;;;;;;;;6.86;56.79;94675.47;5079522;28;20017;-68
2022/12/08 07:31:16;;;;;;;;;;;;;;;7.07;56.70;94679.34;5073606;28;20016;-65
2022/12/08 07:33:41;;;;;;;;;;;;;;;7.22;56.04;94680.94;5091514;28;20016;-65
2022/12/08 07:36:06;;;;;;;;;;;;;;;7.32;55.79;94674.66;5090776;28;20528;-65
2022/12/08 07:38:32;;;;;;;;;;;;;;;7.39;54.64;94677.69;5092026;28;20419;-66
2022/12/08 07:40:57;;;;;;;;;;;;;;;7.46;55.17;94676.22;5089709;28;20112;-65
2022/12/08 07:43:22;;;;;;;;;;;;;;;7.51;54.65;94680.63;5091302;28;20024;-64
2022/12/08 07:45:48;;;;;;;;;;;;;;;7.58;54.56;94674.94;5090265;28;20017;-66
2022/12/08 07:48:14;;;;;;;;;;;;;;;7.67;54.58;94670.50;5092184;28;20016;-66
2022/12/08 07:50:39;;;;;;;;;;;;;;;7.75;54.11;94675.91;5091028;28;20112;-67
2022/12/08 07:53:05;;;;;;;;;;;;;;;7.80;54.17;94667.84;5074619;28;20013;-63
2022/12/08 07:55:30;;;;;;;;;;;;;;;7.91;53.82;94665.75;5086037;28;20021;-65
2022/12/08 07:57:56;;;;;;;;;;;;;;;8.01;53.73;94662.09;5088901;28;20074;-66
2022/12/08 08:00:21;;;;;;;;;;;;;;;8.10;53.54;94665.63;5089559;28;20388;-66
2022/12/08 08:02:46;;;;;;;;;;;;;;;8.21;53.50;94674.13;5091893;28;20039;-65
2022/12/08 08:05:12;;;;;;;;;;;;;;;8.26;52.33;94677.44;5072866;28;20066;-66
2022/12/08 08:07:37;;;;;;;;;;;;;;;8.23;52.55;94678.03;5090604;28;20070;-64
2022/12/08 08:10:03;;;;;;;;;;;;;;;8.26;52.80;94674.78;5062912;28;20017;-70
2022/12/08 08:12:28;;;;;;;;;;;;;;;8.22;52.37;94667.72;5087678;28;20432;-64
2022/12/08 08:14:53;;;;;;;;;;;;;;;8.23;52.41;94667.44;5090044;28;20017;-66
2022/12/08 08:17:19;;;;;;;;;;;;;;;8.33;52.39;94684.97;5072173;28;20056;-64
2022/12/08 08:19:44;;;;;;;;;;;;;;;8.06;52.26;94669.94;5089673;28;20017;-66
2022/12/08 08:22:10;;;;;;;;;;;;;;;7.61;53.29;94675.13;5090993;28;20013;-64
2022/12/08 08:24:35;;;;;;;;;;;;;;;7.92;52.63;94675.25;5091596;28;20489;-65
2022/12/08 08:27:00;;;;;;;;;;;;;;;8.02;52.66;94666.31;5091894;28;20038;-63
2022/12/08 08:29:25;;;;;;;;;;;;;;;8.26;52.60;94664.19;5071360;28;20020;-65
2022/12/08 08:31:50;;;;;;;;;;;;;;;8.45;52.39;94668.56;5090439;28;20017;-64
2022/12/08 08:34:15;;;;;;;;;;;;;;;8.55;51.98;94668.31;5073432;28;20384;-64
2022/12/08 08:36:41;;;;;;;;;;;;;;;8.72;51.91;94671.06;5090143;28;20633;-71
2022/12/08 08:39:06;;;;;;;;;;;;;;;8.90;51.39;94669.28;5072381;28;20020;-67
2022/12/08 08:41:31;;;;;;;;;;;;;;;9.04;51.35;94666.56;5083708;28;20030;-63
2022/12/08 08:43:57;;;;;;;;;;;;;;;9.18;50.12;94664.59;5073687;28;20060;-64
2022/12/08 08:46:22;;;;;;;;;;;;;;;9.32;50.28;94667.94;5091822;28;20103;-64
2022/12/08 08:48:47;;;;;;;;;;;;;;;9.48;49.97;94660.34;5090657;28;20098;-64
2022/12/08 08:51:13;;;;;;;;;;;;;;;9.42;48.22;94666.06;5071212;28;20043;-65
2022/12/08 08:53:38;;;;;;;;;;;;;;;9.22;48.25;94673.53;5072566;28;20069;-66
2022/12/08 08:56:08;;;;;;;;;;;;;;;8.63;49.66;94672.09;5072104;28;20024;-65
2022/12/08 08:58:33;;;;;;;;;;;;;;;8.89;48.40;94675.69;5086762;28;20437;-65
2022/12/08 09:00:58;;;;;;;;;;;;;;;8.98;49.12;94678.41;5090710;28;20040;-65
2022/12/08 09:03:24;;;;;;;;;;;;;;;9.21;48.86;94671.94;5090553;28;20019;-66
2022/12/08 09:05:49;;;;;;;;;;;;;;;9.51;48.83;94670.31;5078246;28;20465;-66
2022/12/08 09:08:14;;;;;;;;;;;;;;;9.79;48.48;94672.75;5062246;28;20021;-66
2022/12/08 09:10:40;;;;;;;;;;;;;;;10.02;47.39;94665.44;5071408;28;20017;-66
2022/12/08 09:13:05;;;;;;;;;;;;;;;10.17;46.96;94667.63;5072369;28;20043;-66
2022/12/08 09:15:30;;;;;;;;;;;;;;;10.03;46.48;94666.97;5070819;28;20012;-66
2022/12/08 09:17:55;;;;;;;;;;;;;;;10.19;46.05;94664.69;5087710;28;20063;-64
2022/12/08 09:20:20;;;;;;;;;;;;;;;10.28;47.59;94660.16;5088528;28;20070;-64
2022/12/08 09:22:46;;;;;;;;;;;;;;;10.00;47.38;94670.28;5071885;28;20017;-64
2022/12/08 09:25:11;;;;;;;;;;;;;;;9.15;49.30;94661.78;5089184;28;20070;-66
2022/12/08 09:27:36;;;;;;;;;;;;;;;9.17;49.65;94659.59;5090311;28;20017;-64
2022/12/08 09:30:01;;;;;;;;;;;;;;;9.31;49.21;94653.06;5090409;28;20040;-64
2022/12/08 09:32:26;;;;;;;;;;;;;;;9.63;49.12;94653.81;5090174;28;20059;-64
2022/12/08 09:34:53;;;;;;;;;;;;;;;9.74;48.11;94656.97;5090618;28;20057;-64
2022/12/08 09:37:18;;;;;;;;;;;;;;;9.81;47.74;94654.63;5090262;28;20021;-64
2022/12/08 09:39:43;;;;;;;;;;;;;;;8.90;49.82;94655.25;5071657;28;20020;-64
2022/12/08 09:42:08;;;;;;;;;;;;;;;8.60;51.55;94649.66;5072324;28;20009;-63
2022/12/08 09:44:34;;;;;;;;;;;;;;;8.79;50.99;94642.25;5090303;28;20020;-64
2022/12/08 09:47:00;;;;;;;;;;;;;;;8.57;51.55;94644.94;5090346;28;20013;-64
2022/12/08 09:49:35;;;;;;;;;;;;;;;8.76;50.88;94640.22;5089981;28;20530;-64
2022/12/08 09:52:01;;;;;;;;;;;;;;;9.24;50.60;94636.84;5090238;28;20015;-64
2022/12/08 09:54:33;;;;;;;;;;;;;;;9.49;49.83;94639.88;5071991;28;20012;-64
2022/12/08 09:57:02;;;;;;;;;;;;;;;9.55;48.61;94625.38;5090334;28;20024;-64
2022/12/08 09:59:33;;;;;;;;;;;;;;;9.63;48.80;94620.06;5089821;28;20415;-64
2022/12/08 10:01:59;;;;;;;;;;;;;;;9.83;48.43;94610.72;5090256;28;20009;-64
2022/12/08 10:04:30;;;;;;;;;;;;;;;9.02;50.02;94619.13;5071798;28;20083;-64
2022/12/08 10:07:14;;;;;;;;;;;;;;;7.21;55.24;94621.16;5071910;28;20060;-64
2022/12/08 10:09:57;;;;;;;;;;;;;;;7.11;55.92;94608.13;5089646;28;20008;-64
2022/12/08 10:12:22;;;;;;;;;;;;;;;7.87;53.87;94603.09;5071784;28;20012;-63
2022/12/08 10:15:09;;;;;;;;;;;;;;;7.27;55.33;94607.56;5090244;28;20562;-63
2022/12/08 10:17:36;;;;;;;;;;;;;;;6.94;56.85;94606.06;5089944;28;20027;-62
2022/12/08 10:20:10;;;;;;;;;;;;;;;7.63;54.80;94598.09;5089429;28;20009;-62
2022/12/08 10:22:36;;;;;;;;;;;;;;;8.36;52.84;94601.44;5089774;28;20009;-63
2022/12/08 10:25:10;;;;;;;;;;;;;;;8.46;51.89;94598.56;5071637;28;20396;-63
2022/12/08 10:27:36;;;;;;;;;;;;;;;8.14;53.01;94588.97;5071659;28;20016;-63
2022/12/08 10:30:01;;;;;;;;;;;;;;;7.49;53.17;94592.81;5071462;28;20116;-63
2022/12/08 10:32:33;;;;;;;;;;;;;;;7.13;55.27;94582.19;5089691;28;20077;-63
2022/12/08 10:34:59;;;;;;;;;;;;;;;7.67;54.80;94577.84;5092961;28;20365;-63
2022/12/08 10:37:25;;;;;;;;;;;;;;;7.66;54.21;94576.31;5093863;28;20090;-63
2022/12/08 10:39:57;;;;;;;;;;;;;;;7.80;53.23;94577.81;5093557;28;20512;-63
2022/12/08 10:42:23;;;;;;;;;;;;;;;7.38;54.40;94571.09;5093210;28;20024;-63
2022/12/08 10:45:07;;;;;;;;;;;;;;;8.05;53.42;94565.88;5075696;28;20017;-63
2022/12/08 10:47:35;;;;;;;;;;;;;;;8.31;52.15;94560.72;5093609;28;20013;-63
2022/12/08 10:50:12;;;;;;;;;;;;;;;7.32;54.77;94568.81;5093313;28;20099;-64
2022/12/08 10:52:38;;;;;;;;;;;;;;;7.93;54.24;94572.75;5093691;28;20009;-63
2022/12/08 10:55:12;;;;;;;;;;;;;;;8.45;53.02;94565.22;5093578;28;20008;-65
2022/12/08 10:57:37;;;;;;;;;;;;;;;8.85;52.18;94556.19;5075448;28;20025;-64
2022/12/08 11:00:03;;;;;;;;;;;;;;;9.00;51.47;94556.84;5093172;28;20059;-64
2022/12/08 11:02:28;;;;;;;;;;;;;;;9.33;50.59;94546.63;5074978;28;20512;-64
2022/12/08 11:04:58;;;;;;;;;;;;;;;9.69;50.09;94549.00;5075170;28;20024;-65
2022/12/08 11:07:23;;;;;;;;;;;;;;;9.74;48.90;94540.88;5075197;28;20057;-64
2022/12/08 11:09:52;;;;;;;;;;;;;;;9.60;48.66;94541.03;5093063;28;20078;-63
2022/12/08 11:12:19;;;;;;;;;;;;;;;9.79;48.46;94538.06;5074801;28;20050;-65
2022/12/08 11:14:44;;;;;;;;;;;;;;;10.15;47.79;94529.75;5074799;28;20063;-64
2022/12/08 11:17:38;;;;;;;;;;;;;;;10.38;47.88;94530.34;5093183;28;20844;-63
2022/12/08 11:20:18;;;;;;;;;;;;;;;10.65;46.52;94526.53;5089280;28;20019;-63
2022/12/08 11:22:45;;;;;;;;;;;;;;;9.77;47.48;94526.97;5074788;28;20013;-63
2022/12/08 11:25:14;;;;;;;;;;;;;;;10.15;46.80;94523.66;5093051;28;20520;-64
2022/12/08 11:27:47;;;;;;;;;;;;;;;9.56;48.00;94528.69;5093166;28;20016;-63
2022/12/08 11:30:12;;;;;;;;;;;;;;;10.16;47.05;94535.84;5092150;28;20067;-64
2022/12/08 11:32:40;;;;;;;;;;;;;;;10.51;46.24;94519.84;5092877;28;20017;-64
2022/12/08 11:35:06;;;;;;;;;;;;;;;10.79;45.86;94515.66;5092456;28;20015;-64
2022/12/08 11:37:41;;;;;;;;;;;;;;;10.72;45.12;94514.59;5092266;28;20027;-63
2022/12/08 11:40:19;;;;;;;;;;;;;;;11.01;44.77;94516.50;5074052;28;20019;-64
2022/12/08 11:42:50;;;;;;;;;;;;;;;11.09;44.25;94503.13;5069722;28;20013;-64
2022/12/08 11:45:19;;;;;;;;;;;;;;;11.17;44.76;94504.97;5073847;28;20020;-64
2022/12/08 11:48:13;;;;;;;;;;;;;;;11.15;44.41;94501.84;5092549;28;20099;-64
2022/12/08 11:50:42;;;;;;;;;;;;;;;11.12;44.34;94499.06;5057148;28;20017;-64
2022/12/08 11:53:30;;;;;;;;;;;;;;;11.18;44.55;94497.78;5092556;28;20059;-64
2022/12/08 11:55:57;;;;;;;;;;;;;;;11.27;44.00;94487.09;5078592;28;20017;-64
2022/12/08 11:58:43;;;;;;;;;;;;;;;11.27;43.97;94492.41;5073854;28;20689;-65
2022/12/08 12:01:25;;;;;;;;;;;;;;;11.31;43.91;94494.09;5092723;28;20100;-64
2022/12/08 12:03:54;;;;;;;;;;;;;;;11.35;43.76;94497.66;5074286;28;20103;-63
2022/12/08 12:06:19;;;;;;;;;;;;;;;11.37;43.56;94498.13;5091968;28;20013;-64
2022/12/08 12:08:53;;;;;;;;;;;;;;;11.37;43.36;94490.13;5073821;28;20086;-64
2022/12/08 12:14:41;;;;;;;;;;;;;;;11.41;43.57;94482.25;5092266;28;20055;-64
2022/12/08 12:17:30;;;;;;;;;;;;;;;11.36;42.60;94487.78;5092058;28;20468;-64
2022/12/08 12:19:58;;;;;;;;;;;;;;;11.33;43.19;94485.78;5036057;28;20499;-63
2022/12/08 12:22:33;;;;;;;;;;;;;;;11.29;43.55;94482.19;5073437;28;20020;-65
2022/12/08 12:24:58;;;;;;;;;;;;;;;11.34;43.50;94484.66;5092324;28;20012;-64
2022/12/08 12:27:26;;;;;;;;;;;;;;;10.61;42.53;94483.03;5092014;28;20016;-65
2022/12/08 12:30:03;;;;;;;;;;;;;;;11.02;42.55;94476.28;5073281;28;20012;-64
2022/12/08 12:32:39;;;;;;;;;;;;;;;11.02;43.57;94470.16;5091813;28;20009;-65
2022/12/08 12:35:12;;;;;;;;;;;;;;;11.04;43.58;94473.28;5073540;28;20016;-65
2022/12/08 12:37:40;;;;;;;;;;;;;;;11.06;43.40;94471.88;5091265;28;20025;-65
2022/12/08 12:40:14;;;;;;;;;;;;;;;10.81;44.18;94472.78;5091115;28;20062;-65
2022/12/08 12:42:41;;;;;;;;;;;;;;;9.79;47.05;94476.97;5091544;28;20008;-64
2022/12/08 12:45:09;;;;;;;;;;;;;;;9.33;47.83;94473.09;5091228;28;20057;-64
2022/12/08 12:47:47;;;;;;;;;;;;;;;8.89;49.43;94476.00;5091256;28;20013;-64
2022/12/08 12:50:13;;;;;;;;;;;;;;;8.91;49.38;94471.97;5090834;28;20061;-65
2022/12/08 12:52:39;;;;;;;;;;;;;;;8.90;49.89;94472.25;5073226;28;20498;-64
2022/12/08 12:55:10;;;;;;;;;;;;;;;9.61;48.88;94470.13;5072877;28;20480;-64
2022/12/08 12:57:48;;;;;;;;;;;;;;;9.13;48.94;94465.75;5072081;28;20523;-64
2022/12/08 13:00:18;;;;;;;;;;;;;;;8.67;50.41;94468.94;5072481;28;20674;-65
2022/12/08 13:02:43;;;;;;;;;;;;;;;8.96;50.13;94471.81;5091080;28;20013;-64
2022/12/08 13:05:10;;;;;;;;;;;;;;;8.44;50.33;94470.84;5091015;28;20015;-64
2022/12/08 13:07:43;;;;;;;;;;;;;;;7.72;51.41;94463.91;5090671;28;20054;-64
2022/12/08 13:10:15;;;;;;;;;;;;;;;8.22;50.84;94463.72;5072108;28;20495;-64